Time;durP1;ratioP1;P1;durP2;ratioP2;P2;SDS_P1;SDS_P2;PMS_P1;PMS_P2;Temp;Humidity;BMP_temperature;BMP_pressure;BME280_temperature;BME280_humidity;BME280_pressure;Samples;Min_cycle;Max_cycle;Signal;HPM_P1;HPM_P2
2022/08/29 00:01:00;;;;;;;9.77;4.63;;;14.60;99.90;;;;;;5073899;28;20125;-65
2022/08/29 00:03:27;;;;;;;9.07;5.88;;;14.60;99.90;;;;;;5057028;28;20040;-65
2022/08/29 00:05:53;;;;;;;8.88;5.05;;;14.60;99.90;;;;;;5073329;28;20492;-65
2022/08/29 00:08:19;;;;;;;10.43;6.20;;;14.60;99.90;;;;;;5073761;28;20036;-65
2022/08/29 00:10:45;;;;;;;8.73;5.30;;;14.60;99.90;;;;;;5073579;28;20043;-65
2022/08/29 00:13:13;;;;;;;10.13;6.07;;;14.60;99.90;;;;;;5056794;28;20036;-65
2022/08/29 00:15:40;;;;;;;9.30;5.38;;;14.60;99.90;;;;;;5071093;28;20123;-65
2022/08/29 00:18:06;;;;;;;10.82;5.93;;;14.60;99.90;;;;;;5076046;28;20124;-65
2022/08/29 00:20:34;;;;;;;9.25;5.45;;;14.60;99.90;;;;;;5077501;28;20543;-65
2022/08/29 00:23:01;;;;;;;10.55;5.57;;;14.70;99.90;;;;;;5077220;28;20094;-65
2022/08/29 00:25:27;;;;;;;8.65;5.07;;;14.70;99.90;;;;;;5077252;28;20040;-65
2022/08/29 00:27:53;;;;;;;11.75;5.32;;;14.70;99.90;;;;;;5076939;28;20051;-65
2022/08/29 00:30:19;;;;;;;10.00;5.68;;;14.70;99.90;;;;;;5077134;28;20036;-65
2022/08/29 00:32:45;;;;;;;11.43;5.95;;;14.70;99.90;;;;;;5077268;28;20040;-65
2022/08/29 00:35:20;;;;;;;10.38;5.60;;;14.70;99.90;;;;;;5077035;28;20046;-65
2022/08/29 00:37:47;;;;;;;8.52;4.80;;;14.70;99.90;;;;;;5076981;28;20048;-65
2022/08/29 00:40:17;;;;;;;9.35;5.75;;;14.70;99.90;;;;;;5095097;28;20059;-65
2022/08/29 00:42:43;;;;;;;11.07;5.68;;;14.70;99.90;;;;;;5095046;28;20567;-65
2022/08/29 00:45:11;;;;;;;11.38;5.82;;;14.70;99.90;;;;;;5074620;28;20044;-65
2022/08/29 00:47:42;;;;;;;8.32;5.15;;;14.80;99.90;;;;;;5077113;28;20127;-65
2022/08/29 00:50:12;;;;;;;10.43;5.15;;;14.80;99.90;;;;;;5076720;28;20043;-65
2022/08/29 00:52:45;;;;;;;11.43;5.45;;;14.80;99.90;;;;;;5076925;28;20036;-65
2022/08/29 00:55:16;;;;;;;11.50;5.07;;;14.80;99.90;;;;;;5076707;28;20036;-65
2022/08/29 00:57:43;;;;;;;;;;;14.80;99.90;;;;;;5077314;28;20032;-65
2022/08/29 01:00:12;;;;;;;9.18;4.63;;;14.80;99.90;;;;;;5076761;28;19923;-65
2022/08/29 01:02:40;;;;;;;9.18;5.10;;;14.80;99.90;;;;;;5059918;28;20128;-65
2022/08/29 01:05:09;;;;;;;12.32;5.30;;;14.80;99.90;;;;;;5076702;28;20496;-65
2022/08/29 01:07:36;;;;;;;10.43;5.32;;;14.80;99.90;;;;;;5076167;28;20064;-65
2022/08/29 01:10:04;;;;;;;10.52;5.15;;;14.80;99.90;;;;;;5076384;28;20059;-65
2022/08/29 01:12:31;;;;;;;8.10;5.13;;;14.80;99.90;;;;;;5076381;28;20036;-65
2022/08/29 01:15:06;;;;;;;8.30;5.38;;;14.90;99.90;;;;;;5073845;28;20039;-65
2022/08/29 01:17:46;;;;;;;8.90;4.93;;;14.80;99.90;;;;;;5076237;28;20039;-65
2022/08/29 01:20:14;;;;;;;10.57;4.60;;;14.80;99.90;;;;;;5059514;28;20123;-65
2022/08/29 01:23:10;;;;;;;9.18;5.15;;;14.80;99.90;;;;;;5076082;28;20044;-65
2022/08/29 01:25:43;;;;;;;8.30;4.78;;;14.80;99.90;;;;;;5059681;28;20032;-65
2022/08/29 01:28:18;;;;;;;8.73;4.90;;;14.80;99.90;;;;;;5075753;28;20067;-65
2022/08/29 01:31:13;;;;;;;9.43;4.60;;;14.80;99.90;;;;;;5093954;28;20040;-65
2022/08/29 01:33:46;;;;;;;9.20;4.05;;;14.80;99.90;;;;;;5075893;28;20185;-65
2022/08/29 01:36:17;;;;;;;8.48;4.50;;;14.80;99.90;;;;;;5076211;28;20043;-65
2022/08/29 01:38:44;;;;;;;8.45;4.15;;;14.90;99.90;;;;;;5093843;28;20560;-65
2022/08/29 01:41:11;;;;;;;9.30;4.60;;;14.80;99.90;;;;;;5093889;28;20040;-65
2022/08/29 01:43:44;;;;;;;9.45;4.57;;;14.80;99.90;;;;;;5076007;28;20467;-65
2022/08/29 01:46:13;;;;;;;8.00;4.40;;;14.80;99.90;;;;;;5056769;28;20051;-65
2022/08/29 01:48:43;;;;;;;8.02;4.53;;;14.80;99.90;;;;;;5093686;28;20047;-65
2022/08/29 01:51:10;;;;;;;7.95;4.43;;;14.80;99.90;;;;;;5075655;28;20040;-65
2022/08/29 01:53:37;;;;;;;10.23;4.38;;;14.80;99.90;;;;;;5075876;28;20118;-65
2022/08/29 01:56:13;;;;;;;7.10;3.85;;;14.90;99.90;;;;;;5093823;28;20032;-65
2022/08/29 01:58:40;;;;;;;10.23;3.15;;;14.80;99.90;;;;;;5075754;28;20040;-65
2022/08/29 02:01:08;;;;;;;9.45;3.45;;;14.80;99.90;;;;;;5058972;28;20446;-65
2022/08/29 02:03:34;;;;;;;9.52;3.92;;;14.90;99.90;;;;;;5075322;28;20045;-65
2022/08/29 02:06:03;;;;;;;6.40;3.78;;;14.90;99.90;;;;;;5075295;28;20052;-65
2022/08/29 02:08:29;;;;;;;7.53;3.90;;;14.90;99.90;;;;;;5075176;28;20052;-65
2022/08/29 02:10:55;;;;;;;6.82;3.63;;;14.90;99.90;;;;;;5093455;28;20404;-65
2022/08/29 02:13:23;;;;;;;6.90;3.95;;;14.90;99.90;;;;;;5075129;28;20085;-65
2022/08/29 02:15:50;;;;;;;5.63;3.15;;;14.90;99.90;;;;;;5072846;28;20036;-65
2022/08/29 02:18:17;;;;;;;7.72;3.45;;;14.90;99.90;;;;;;5093105;28;20044;-65
2022/08/29 02:20:43;;;;;;;7.63;3.22;;;14.90;99.90;;;;;;5075280;28;20043;-65
2022/08/29 02:23:10;;;;;;;6.50;3.55;;;14.90;99.90;;;;;;5093257;28;20172;-65
2022/08/29 02:25:42;;;;;;;11.35;3.45;;;14.90;99.90;;;;;;5058209;28;20127;-65
2022/08/29 02:28:13;;;;;;;7.78;3.30;;;14.90;99.90;;;;;;5074984;28;20044;-65
2022/08/29 02:30:47;;;;;;;7.50;3.33;;;14.90;99.90;;;;;;5093015;28;20071;-65
2022/08/29 02:33:14;;;;;;;8.20;3.35;;;14.90;99.90;;;;;;5075111;28;20111;-65
2022/08/29 02:35:42;;;;;;;4.93;3.25;;;14.90;99.90;;;;;;5093049;28;20048;-65
2022/08/29 02:38:08;;;;;;;7.53;3.03;;;14.90;99.90;;;;;;5092741;28;20041;-65
2022/08/29 02:40:34;;;;;;;7.85;3.15;;;14.90;99.90;;;;;;5075069;28;20256;-65
2022/08/29 02:43:01;;;;;;;5.05;2.95;;;15.00;99.90;;;;;;5074806;28;20493;-65
2022/08/29 02:45:28;;;;;;;6.95;2.50;;;14.90;99.90;;;;;;5055691;28;20462;-65
2022/08/29 02:47:54;;;;;;;10.40;3.28;;;14.90;99.90;;;;;;5074737;28;20036;-65
2022/08/29 02:50:20;;;;;;;7.65;2.85;;;14.90;99.90;;;;;;5074684;28;20400;-65
2022/08/29 02:52:47;;;;;;;6.07;2.95;;;14.90;99.90;;;;;;5057772;28;20127;-65
2022/08/29 02:55:15;;;;;;;8.00;2.47;;;14.90;99.90;;;;;;5074367;28;20040;-65
2022/08/29 02:57:42;;;;;;;7.60;2.80;;;14.90;99.90;;;;;;5074309;28;20119;-65
2022/08/29 03:00:16;;;;;;;7.75;3.50;;;14.90;99.90;;;;;;5057672;28;20040;-65
2022/08/29 03:02:43;;;;;;;7.05;3.10;;;14.90;99.90;;;;;;5074580;28;20391;-65
2022/08/29 03:05:09;;;;;;;8.63;2.72;;;15.00;99.90;;;;;;5092352;28;20541;-65
2022/08/29 03:07:35;;;;;;;9.25;3.45;;;15.00;99.90;;;;;;5073997;28;20048;-65
2022/08/29 03:10:06;;;;;;;5.53;3.05;;;14.90;99.90;;;;;;5092327;28;20050;-65
2022/08/29 03:12:34;;;;;;;5.43;3.58;;;15.00;99.90;;;;;;5092205;28;20042;-65
2022/08/29 03:15:00;;;;;;;9.20;4.07;;;14.90;99.90;;;;;;5071843;28;20508;-65
2022/08/29 03:17:26;;;;;;;8.73;4.10;;;14.90;99.90;;;;;;5092118;28;20078;-65
2022/08/29 03:19:51;;;;;;;8.75;4.03;;;14.90;99.90;;;;;;5057442;28;20080;-65
2022/08/29 03:22:17;;;;;;;12.10;4.35;;;15.00;99.90;;;;;;5074021;28;20148;-65
2022/08/29 03:24:43;;;;;;;10.32;5.45;;;14.90;99.90;;;;;;5092193;28;20044;-65
2022/08/29 03:27:09;;;;;;;7.28;4.22;;;14.90;99.90;;;;;;5091989;28;20047;-65
2022/08/29 03:29:37;;;;;;;11.35;4.40;;;14.90;99.90;;;;;;5091929;28;20051;-65
2022/08/29 03:32:04;;;;;;;7.35;4.57;;;14.90;99.90;;;;;;5057185;28;20040;-65
2022/08/29 03:34:30;;;;;;;6.88;3.92;;;15.00;99.90;;;;;;5057208;28;20036;-65
2022/08/29 03:36:56;;;;;;;11.68;4.68;;;14.90;99.90;;;;;;5073796;28;20090;-65
2022/08/29 03:39:22;;;;;;;9.05;4.43;;;14.90;99.90;;;;;;5091936;28;20040;-65
2022/08/29 03:41:48;;;;;;;5.60;4.10;;;14.90;99.90;;;;;;5057054;28;20079;-65
2022/08/29 03:44:14;;;;;;;8.65;4.00;;;14.90;99.90;;;;;;5091352;28;20070;-65
2022/08/29 03:46:40;;;;;;;8.60;4.57;;;14.90;99.90;;;;;;5056016;28;20453;-65
2022/08/29 03:49:07;;;;;;;9.20;4.60;;;14.90;99.90;;;;;;5073815;28;20082;-65
2022/08/29 03:51:38;;;;;;;8.27;4.30;;;14.90;99.90;;;;;;5073819;28;20047;-65
2022/08/29 03:54:05;;;;;;;8.75;4.50;;;14.90;99.90;;;;;;5078122;28;20039;-65
2022/08/29 03:56:31;;;;;;;7.53;4.47;;;14.90;99.90;;;;;;5077696;28;20553;-65
2022/08/29 03:58:57;;;;;;;7.13;4.75;;;14.80;99.90;;;;;;5061053;28;20044;-65
2022/08/29 04:01:27;;;;;;;8.10;4.60;;;14.80;99.90;;;;;;5078007;28;20047;-65
2022/08/29 04:03:55;;;;;;;7.43;3.97;;;14.70;99.90;;;;;;5077645;28;20123;-65
2022/08/29 04:06:22;;;;;;;6.43;4.22;;;14.70;99.90;;;;;;5077662;28;20428;-65
2022/08/29 04:08:50;;;;;;;7.97;4.00;;;14.70;99.90;;;;;;5077342;28;20052;-65
2022/08/29 04:11:17;;;;;;;9.43;4.47;;;14.60;99.90;;;;;;5095894;28;20070;-65
2022/08/29 04:13:43;;;;;;;11.98;4.30;;;14.60;99.90;;;;;;5077446;28;20119;-65
2022/08/29 04:16:11;;;;;;;6.60;4.20;;;14.60;99.90;;;;;;5075204;28;20189;-65
2022/08/29 04:18:37;;;;;;;10.40;4.45;;;14.50;99.90;;;;;;5077330;28;20040;-65
2022/08/29 04:21:04;;;;;;;9.43;4.38;;;14.50;99.90;;;;;;5077217;28;20515;-65
2022/08/29 04:23:32;;;;;;;13.65;5.88;;;14.50;99.90;;;;;;5060498;28;20044;-65
2022/08/29 04:25:57;;;;;;;7.15;4.03;;;14.40;99.90;;;;;;5077433;28;20036;-65
2022/08/29 04:28:23;;;;;;;10.82;4.90;;;14.40;99.90;;;;;;5077307;28;20586;-65
2022/08/29 04:30:51;;;;;;;9.27;4.85;;;14.40;99.90;;;;;;5095174;28;20124;-65
2022/08/29 04:33:18;;;;;;;11.00;5.22;;;14.40;99.90;;;;;;5077025;28;20040;-65
2022/08/29 04:35:44;;;;;;;7.50;5.20;;;14.40;99.90;;;;;;5095134;28;20040;-65
2022/08/29 04:38:10;;;;;;;8.85;4.70;;;14.40;99.90;;;;;;5076877;28;20069;-65
2022/08/29 04:40:39;;;;;;;8.88;4.97;;;14.40;99.90;;;;;;5095249;28;20036;-65
2022/08/29 04:43:05;;;;;;;7.60;4.47;;;14.40;99.90;;;;;;5077156;28;20056;-65
2022/08/29 04:45:32;;;;;;;10.95;5.30;;;14.40;99.90;;;;;;5074731;28;20040;-65
2022/08/29 04:47:58;;;;;;;9.40;4.35;;;14.40;99.90;;;;;;5076661;28;20504;-65
2022/08/29 04:50:25;;;;;;;8.88;4.68;;;14.40;99.90;;;;;;5076746;28;20040;-65
2022/08/29 04:52:51;;;;;;;10.02;4.70;;;14.40;99.90;;;;;;5076650;28;20507;-65
2022/08/29 04:55:20;;;;;;;12.63;4.80;;;14.40;99.90;;;;;;5076669;28;20040;-65
2022/08/29 04:57:47;;;;;;;8.70;4.97;;;14.40;99.90;;;;;;5076562;28;20044;-65
2022/08/29 05:00:17;;;;;;;8.63;4.40;;;14.50;99.90;;;;;;5094827;28;20036;-65
2022/08/29 05:02:43;;;;;;;10.53;4.83;;;14.50;99.90;;;;;;5076555;28;20036;-65
2022/08/29 05:05:11;;;;;;;7.82;4.03;;;14.50;99.90;;;;;;5058783;28;20388;-65
2022/08/29 05:07:37;;;;;;;8.93;4.47;;;14.50;99.90;;;;;;5076146;28;20060;-65
2022/08/29 05:10:10;;;;;;;8.57;4.75;;;14.60;99.90;;;;;;5076446;28;20048;-65
2022/08/29 05:12:36;;;;;;;8.20;3.90;;;14.70;99.90;;;;;;5076507;28;20089;-65
2022/08/29 05:15:04;;;;;;;9.90;4.13;;;14.70;99.90;;;;;;5092473;28;20032;-65
2022/08/29 05:17:30;;;;;;;8.35;3.75;;;14.70;99.90;;;;;;5076274;28;20511;-65
2022/08/29 05:19:56;;;;;;;12.13;4.53;;;14.80;99.90;;;;;;5076126;28;20036;-65
2022/08/29 05:22:22;;;;;;;9.20;4.55;;;14.80;99.90;;;;;;5076236;28;20079;-65
2022/08/29 05:24:49;;;;;;;9.02;4.35;;;14.80;99.90;;;;;;5094406;28;20040;-65
2022/08/29 05:27:20;;;;;;;10.50;4.10;;;14.90;99.90;;;;;;5076070;28;20048;-65
2022/08/29 05:29:48;;;;;;;8.27;3.75;;;14.90;99.90;;;;;;5076010;28;20271;-65
2022/08/29 05:32:16;;;;;;;9.63;4.45;;;15.00;99.90;;;;;;5076193;28;20047;-65
2022/08/29 05:34:43;;;;;;;7.97;3.78;;;15.00;99.90;;;;;;5076207;28;20462;-65
2022/08/29 05:37:13;;;;;;;9.60;4.13;;;15.00;99.90;;;;;;5075888;28;20036;-65
2022/08/29 05:39:40;;;;;;;8.88;3.65;;;15.10;99.90;;;;;;5076293;28;20090;-65
2022/08/29 05:42:07;;;;;;;9.35;3.63;;;15.10;99.90;;;;;;5093936;28;20080;-65
2022/08/29 05:44:35;;;;;;;10.57;4.28;;;15.20;99.90;;;;;;5073355;28;20040;-65
2022/08/29 05:47:04;;;;;;;9.40;3.67;;;15.20;99.90;;;;;;5059185;28;20450;-65
2022/08/29 05:49:30;;;;;;;10.27;4.15;;;15.30;99.90;;;;;;5093697;28;20119;-65
2022/08/29 05:51:56;;;;;;;8.85;3.63;;;15.30;99.90;;;;;;5059145;28;20128;-65
2022/08/29 05:54:23;;;;;;;7.05;3.47;;;15.40;99.90;;;;;;5075562;28;20036;-65
2022/08/29 05:56:50;;;;;;;11.57;3.35;;;15.50;99.90;;;;;;5075633;28;20098;-65
2022/08/29 05:59:16;;;;;;;5.65;3.10;;;15.60;99.90;;;;;;5093560;28;20241;-65
2022/08/29 06:01:42;;;;;;;12.02;4.03;;;15.70;99.90;;;;;;5058817;28;20078;-65
2022/08/29 06:04:08;;;;;;;5.63;2.80;;;15.70;99.90;;;;;;5093666;28;20036;-65
2022/08/29 06:06:34;;;;;;;8.20;2.63;;;15.80;99.90;;;;;;5058752;28;20446;-65
2022/08/29 06:09:00;;;;;;;11.10;3.50;;;15.90;99.90;;;;;;5075283;28;20101;-65
2022/08/29 06:11:30;;;;;;;10.82;3.47;;;15.90;99.90;;;;;;5093348;28;20036;-65
2022/08/29 06:13:58;;;;;;;7.77;3.10;;;15.90;99.90;;;;;;5075256;28;20424;-65
2022/08/29 06:16:26;;;;;;;9.63;3.60;;;16.00;99.90;;;;;;5090428;28;20036;-65
2022/08/29 06:18:52;;;;;;;6.85;2.92;;;16.00;99.90;;;;;;5058683;28;20040;-65
2022/08/29 06:21:18;;;;;;;7.90;3.25;;;16.00;99.90;;;;;;5074997;28;20520;-65
2022/08/29 06:23:45;;;;;;;7.22;3.05;;;16.10;99.90;;;;;;5093228;28;20035;-65
2022/08/29 06:26:12;;;;;;;9.50;3.17;;;16.10;99.90;;;;;;5093121;28;20043;-65
2022/08/29 06:28:41;;;;;;;9.95;2.85;;;16.10;99.90;;;;;;5074713;28;20093;-65
2022/08/29 06:31:19;;;;;;;6.22;3.00;;;16.10;99.90;;;;;;5058147;28;20032;-66
2022/08/29 06:33:46;;;;;;;9.70;3.17;;;16.10;99.90;;;;;;5075067;28;20127;-65
2022/08/29 06:36:12;;;;;;;11.70;2.83;;;16.10;99.90;;;;;;5075000;28;20044;-65
2022/08/29 06:38:38;;;;;;;8.80;3.25;;;16.20;99.90;;;;;;5092897;28;20036;-65
2022/08/29 06:41:10;;;;;;;7.20;3.45;;;16.20;99.90;;;;;;5092731;28;20511;-65
2022/08/29 06:43:36;;;;;;;8.65;2.83;;;16.30;99.90;;;;;;5074936;28;20433;-65
2022/08/29 06:46:03;;;;;;;8.00;2.97;;;16.30;99.90;;;;;;5090300;28;20052;-65
2022/08/29 06:48:29;;;;;;;11.10;3.40;;;16.30;99.90;;;;;;5074644;28;20032;-65
2022/08/29 06:50:56;;;;;;;10.73;3.17;;;16.40;99.90;;;;;;5092681;28;20038;-65
2022/08/29 06:53:22;;;;;;;4.80;2.53;;;16.40;99.90;;;;;;5074641;28;20122;-65
2022/08/29 06:55:48;;;;;;;9.55;3.22;;;16.50;99.90;;;;;;5092406;28;20508;-65
2022/08/29 06:58:14;;;;;;;7.40;2.38;;;16.50;99.90;;;;;;5074326;28;20127;-65
2022/08/29 07:00:41;;;;;;;6.00;2.60;;;16.60;99.90;;;;;;5057727;28;20127;-65
2022/08/29 07:03:07;;;;;;;5.88;2.15;;;16.70;99.90;;;;;;5092628;28;20047;-65
2022/08/29 07:05:33;;;;;;;7.78;2.70;;;16.80;99.90;;;;;;5092355;28;20040;-65
2022/08/29 07:07:59;;;;;;;7.57;2.85;;;16.90;99.90;;;;;;5071461;28;20064;-65
2022/08/29 07:10:26;;;;;;;11.02;2.67;;;17.10;99.90;;;;;;5091667;28;20048;-65
2022/08/29 07:12:52;;;;;;;8.50;2.30;;;17.30;99.90;;;;;;5074078;28;20039;-66
2022/08/29 07:15:19;;;;;;;6.00;2.28;;;17.50;99.90;;;;;;5071551;28;20048;-65
2022/08/29 07:17:46;;;;;;;7.75;2.95;;;17.70;99.90;;;;;;5073915;28;20081;-66
2022/08/29 07:20:12;;;;;;;6.63;2.40;;;17.90;99.90;;;;;;5057216;28;20044;-65
2022/08/29 07:22:38;;;;;;;11.18;2.55;;;18.00;99.90;;;;;;5057520;28;20392;-65
2022/08/29 07:25:04;;;;;;;6.25;2.47;;;18.10;99.90;;;;;;5057381;28;20040;-65
2022/08/29 07:27:30;;;;;;;10.13;2.55;;;18.20;99.90;;;;;;5073433;28;20141;-65
2022/08/29 07:29:56;;;;;;;10.45;2.63;;;18.20;99.90;;;;;;5091790;28;20075;-65
2022/08/29 07:32:22;;;;;;;7.82;2.40;;;18.20;99.90;;;;;;5074021;28;20502;-65
2022/08/29 07:34:48;;;;;;;8.95;2.42;;;18.30;99.90;;;;;;5074041;28;20052;-66
2022/08/29 07:37:14;;;;;;;7.40;2.22;;;18.40;99.90;;;;;;5091894;28;20089;-65
2022/08/29 07:39:40;;;;;;;6.05;2.25;;;18.40;99.90;;;;;;5074400;28;20054;-66
2022/08/29 07:42:06;;;;;;;3.97;2.00;;;18.50;99.90;;;;;;5092807;28;20040;-64
2022/08/29 07:44:31;;;;;;;8.38;2.25;;;18.60;99.90;;;;;;5071924;28;20522;-65
2022/08/29 07:46:59;;;;;;;5.85;2.10;;;18.70;99.90;;;;;;5091856;28;20043;-65
2022/08/29 07:49:27;;;;;;;8.18;2.10;;;18.70;99.90;;;;;;5057081;28;20047;-65
2022/08/29 07:51:54;;;;;;;5.90;2.35;;;18.90;99.90;;;;;;5057326;28;20442;-65
2022/08/29 07:54:21;;;;;;;5.85;2.22;;;18.80;99.90;;;;;;5073849;28;20047;-65
2022/08/29 07:56:49;;;;;;;9.05;2.20;;;19.00;99.90;;;;;;5073633;28;20131;-65
2022/08/29 07:59:16;;;;;;;7.57;2.08;;;19.10;99.90;;;;;;5073914;28;20131;-65
2022/08/29 08:01:42;;;;;;;10.15;2.17;;;19.20;99.90;;;;;;5073928;28;20392;-65
2022/08/29 08:04:09;;;;;;;5.45;1.98;;;19.40;99.90;;;;;;5073785;28;20036;-65
2022/08/29 08:06:37;;;;;;;8.05;3.58;;;19.50;99.90;;;;;;5091392;28;20060;-65
2022/08/29 08:09:04;;;;;;;9.68;2.58;;;19.50;99.90;;;;;;5091530;28;20052;-65
2022/08/29 08:11:31;;;;;;;5.90;2.20;;;19.50;99.90;;;;;;5073545;28;20039;-65
2022/08/29 08:13:57;;;;;;;5.50;1.83;;;19.50;99.90;;;;;;5073812;28;20061;-65
2022/08/29 08:16:25;;;;;;;7.43;2.10;;;19.50;99.90;;;;;;5089148;28;20500;-65
2022/08/29 08:18:51;;;;;;;7.72;2.28;;;19.60;99.90;;;;;;5073520;28;20040;-65
2022/08/29 08:21:17;;;;;;;7.45;2.22;;;19.60;99.90;;;;;;5091544;28;20044;-65
2022/08/29 08:23:43;;;;;;;10.48;2.97;;;19.70;99.90;;;;;;5057062;28;20040;-65
2022/08/29 08:26:12;;;;;;;6.50;1.88;;;19.70;99.90;;;;;;5073402;28;20476;-65
2022/08/29 08:28:39;;;;;;;6.95;2.33;;;19.70;99.90;;;;;;5091531;28;20047;-65
2022/08/29 08:31:07;;;;;;;9.15;3.00;;;19.70;99.90;;;;;;5073649;28;20127;-65
2022/08/29 08:33:39;;;;;;;5.45;1.98;;;19.70;99.90;;;;;;5057267;28;20313;-65
2022/08/29 08:36:16;;;;;;;5.85;2.47;;;19.70;99.90;;;;;;5073281;28;20071;-65
2022/08/29 08:38:42;;;;;;;6.00;2.17;;;19.80;99.90;;;;;;5074963;28;20097;-65
2022/08/29 08:41:31;;;;;;;8.88;2.10;;;19.90;99.90;;;;;;5077210;28;20046;-65
2022/08/29 08:44:02;;;;;;;6.75;1.85;;;20.00;99.90;;;;;;5077086;28;20050;-66
2022/08/29 08:46:42;;;;;;;7.60;2.40;;;20.20;99.90;;;;;;5092586;28;20036;-67
2022/08/29 08:49:46;;;;;;;5.82;1.85;;;20.20;99.90;;;;;;5076882;28;20036;-69
2022/08/29 08:52:20;;;;;;;5.25;1.90;;;20.40;99.90;;;;;;5076729;28;20129;-66
2022/08/29 08:54:58;;;;;;;9.27;2.17;;;20.50;99.90;;;;;;5076868;28;20047;-67
2022/08/29 08:57:38;;;;;;;6.53;1.73;;;20.60;99.90;;;;;;5094785;28;20032;-66
2022/08/29 09:00:05;;;;;;;5.60;1.80;;;20.70;99.90;;;;;;5060172;28;20063;-67
2022/08/29 09:02:58;;;;;;;5.85;1.63;;;20.70;99.90;;;;;;5076601;28;20048;-66
2022/08/29 09:05:42;;;;;;;5.75;2.40;;;20.70;99.90;;;;;;5094913;28;20044;-66
2022/08/29 09:08:12;;;;;;;3.75;1.60;;;21.10;99.90;;;;;;5094650;28;20080;-66
2022/08/29 09:10:59;;;;;;;3.20;1.40;;;21.30;99.90;;;;;;5076627;28;20036;-66
2022/08/29 09:13:49;;;;;;;4.93;2.15;;;21.40;99.90;;;;;;5094974;28;20040;-66
2022/08/29 09:16:45;;;;;;;4.20;1.52;;;21.60;99.90;;;;;;5092022;28;20044;-67
2022/08/29 09:19:13;;;;;;;3.55;1.20;;;21.80;99.90;;;;;;5069158;28;20078;-67
2022/08/29 09:21:54;;;;;;;4.68;1.58;;;21.90;99.90;;;;;;5076316;28;20120;-67
2022/08/29 09:24:31;;;;;;;4.93;1.33;;;21.80;99.90;;;;;;5076185;28;20104;-67
2022/08/29 09:26:57;;;;;;;4.65;1.50;;;21.70;99.90;;;;;;5076423;28;20047;-67
2022/08/29 09:29:28;;;;;;;4.95;1.73;;;21.70;99.90;;;;;;5076126;28;20040;-67
2022/08/29 09:32:15;;;;;;;4.65;1.42;;;21.70;99.90;;;;;;5059358;28;20047;-66
2022/08/29 09:34:46;;;;;;;5.78;1.75;;;21.90;99.90;;;;;;5094080;28;20032;-67
2022/08/29 09:37:24;;;;;;;4.20;1.40;;;22.20;99.90;;;;;;5076204;28;20114;-67
2022/08/29 09:39:59;;;;;;;4.00;1.63;;;22.30;99.90;;;;;;5076105;28;20117;-67
2022/08/29 09:42:34;;;;;;;4.35;1.40;;;22.20;99.90;;;;;;5094050;28;20385;-67
2022/08/29 09:45:14;;;;;;;5.05;1.65;;;22.10;99.90;;;;;;5091466;28;20076;-67
2022/08/29 09:47:40;;;;;;;4.65;2.15;;;21.90;99.90;;;;;;5059076;28;20477;-67
2022/08/29 09:50:18;;;;;;;3.80;1.55;;;21.80;99.90;;;;;;5093169;28;20044;-67
2022/08/29 09:52:57;;;;;;;4.75;1.75;;;21.80;99.90;;;;;;5062503;28;20045;-67
2022/08/29 09:55:31;;;;;;;4.78;1.70;;;21.70;99.90;;;;;;5055257;28;20488;-67
2022/08/29 09:58:03;;;;;;;7.72;1.77;;;21.70;99.90;;;;;;5063594;28;20040;-67
2022/08/29 10:00:59;;;;;;;6.53;1.90;;;21.70;99.90;;;;;;5075212;28;20407;-67
2022/08/29 10:03:26;;;;;;;8.40;2.30;;;21.60;99.90;;;;;;5075090;28;20105;-67
2022/08/29 10:06:07;;;;;;;3.97;1.63;;;21.50;99.90;;;;;;5075179;28;20043;-67
2022/08/29 10:08:36;;;;;;;4.93;2.17;;;21.50;99.90;;;;;;5093559;28;20048;-67
2022/08/29 10:11:19;;;;;;;5.72;1.90;;;21.40;99.90;;;;;;5075279;28;20036;-67
2022/08/29 10:14:12;;;;;;;4.65;1.90;;;21.30;99.90;;;;;;5074981;28;20056;-67
2022/08/29 10:18:19;;;;;;;4.18;1.60;;;21.30;99.90;;;;;;5079996;28;20044;-67
2022/08/29 10:19:43;;;;;;;6.22;2.65;;;21.30;99.90;;;;;;5093132;28;20110;-67
2022/08/29 10:22:37;;;;;;;7.93;1.98;;;21.30;99.90;;;;;;5075005;28;20036;-67
2022/08/29 10:25:15;;;;;;;6.25;2.00;;;21.40;99.90;;;;;;5093346;28;20381;-67
2022/08/29 10:28:01;;;;;;;4.45;1.40;;;21.60;99.90;;;;;;5072660;28;20447;-67
2022/08/29 10:30:39;;;;;;;3.42;1.67;;;21.80;99.90;;;;;;5064221;28;20050;-67
2022/08/29 10:33:23;;;;;;;7.70;2.28;;;22.00;99.90;;;;;;5093811;28;20122;-67
2022/08/29 10:35:59;;;;;;;3.88;1.60;;;22.10;99.90;;;;;;5059429;28;20499;-67
2022/08/29 10:39:00;;;;;;;4.78;1.60;;;22.30;99.90;;;;;;5074594;28;20397;-67
2022/08/29 10:41:57;;;;;;;4.95;1.88;;;22.40;99.90;;;;;;5020269;28;20048;-67
2022/08/29 10:44:35;;;;;;;7.72;2.05;;;22.60;99.90;;;;;;5057192;28;20404;-67
2022/08/29 10:47:31;;;;;;;6.13;2.17;;;22.80;99.90;;;;;;5092467;28;20044;-67
2022/08/29 10:50:02;;;;;;;9.10;2.30;;;22.80;99.90;;;;;;5092274;28;20097;-67
2022/08/29 10:52:38;;;;;;;5.97;2.38;;;23.00;99.90;;;;;;5074564;28;20051;-67
2022/08/29 10:55:15;;;;;;;4.85;1.83;;;23.20;99.90;;;;;;5074311;28;20036;-67
2022/08/29 10:58:03;;;;;;;4.35;2.05;;;23.40;99.90;;;;;;5074067;28;20040;-67
2022/08/29 11:00:41;;;;;;;7.15;1.77;;;23.60;99.90;;;;;;5092269;28;20105;-66
2022/08/29 11:03:34;;;;;;;5.50;2.08;;;23.70;99.90;;;;;;5073595;28;20408;-67
2022/08/29 11:06:06;;;;;;;6.60;2.33;;;23.60;99.90;;;;;;5073908;28;20063;-67
2022/08/29 11:08:45;;;;;;;4.47;1.88;;;23.30;99.90;;;;;;5092093;28;20052;-67
2022/08/29 11:11:16;;;;;;;;;;;23.20;99.90;;;;;;5074416;28;20040;-67
2022/08/29 11:13:49;;;;;;;6.97;1.85;;;23.10;99.90;;;;;;5057175;28;19965;-67
2022/08/29 11:16:33;;;;;;;5.35;1.70;;;23.10;99.90;;;;;;5071529;28;20128;-67
2022/08/29 11:19:07;;;;;;;5.78;2.13;;;23.00;99.90;;;;;;5092023;28;20044;-67
2022/08/29 11:21:45;;;;;;;4.05;2.25;;;23.00;99.90;;;;;;5092097;28;20152;-67
2022/08/29 11:24:14;;;;;;;5.50;1.83;;;22.90;99.90;;;;;;5074094;28;20437;-67
2022/08/29 11:26:43;;;;;;;4.07;1.83;;;22.80;99.90;;;;;;5057453;28;20098;-67
2022/08/29 11:29:09;;;;;;;5.10;1.83;;;22.80;99.90;;;;;;5091766;28;20052;-67
2022/08/29 11:31:59;;;;;;;7.40;2.08;;;22.90;99.90;;;;;;5073540;28;20048;-67
2022/08/29 11:34:54;;;;;;;7.78;2.10;;;23.00;99.90;;;;;;5073793;28;20068;-67
2022/08/29 11:37:29;;;;;;;7.65;2.22;;;23.20;99.90;;;;;;5091592;28;20119;-67
2022/08/29 11:40:02;;;;;;;12.20;2.22;;;23.30;99.90;;;;;;5091659;28;20570;-67
2022/08/29 11:42:32;;;;;;;6.90;1.65;;;23.40;99.90;;;;;;5073736;28;20066;-67
2022/08/29 11:44:59;;;;;;;5.85;1.80;;;23.50;99.90;;;;;;5071451;28;20075;-67
2022/08/29 11:47:56;;;;;;;6.40;2.60;;;24.20;99.90;;;;;;5056986;28;20047;-67
2022/08/29 11:50:32;;;;;;;8.25;2.20;;;24.70;99.90;;;;;;5073594;28;20047;-67
2022/08/29 11:53:03;;;;;;;8.23;2.20;;;25.10;99.90;;;;;;5057123;28;20105;-67
2022/08/29 11:55:35;;;;;;;5.70;2.30;;;24.90;99.90;;;;;;5091599;28;20051;-67
2022/08/29 11:58:06;;;;;;;8.32;2.95;;;24.50;99.90;;;;;;5073787;28;20032;-67
2022/08/29 12:00:37;;;;;;;5.65;2.42;;;24.00;99.90;;;;;;5073676;28;20075;-67
2022/08/29 12:03:24;;;;;;;8.65;3.15;;;23.70;99.90;;;;;;5073778;28;20392;-67
2022/08/29 12:05:59;;;;;;;7.63;2.72;;;23.70;99.90;;;;;;5073466;28;20028;-67
2022/08/29 12:08:56;;;;;;;8.50;3.42;;;23.60;99.90;;;;;;5074237;28;20052;-67
2022/08/29 12:12:00;;;;;;;9.25;3.00;;;23.50;99.90;;;;;;5091814;28;20047;-67
2022/08/29 12:14:41;;;;;;;7.63;2.97;;;23.30;99.90;;;;;;5075236;28;20071;-67
2022/08/29 12:17:29;;;;;;;12.75;3.13;;;23.10;99.90;;;;;;5077211;28;20043;-67
2022/08/29 12:19:55;;;;;;;6.97;2.72;;;23.00;99.90;;;;;;5077334;28;20052;-67
2022/08/29 12:22:52;;;;;;;7.00;2.60;;;22.90;99.90;;;;;;5077173;28;20507;-67
2022/08/29 12:25:29;;;;;;;5.32;2.78;;;23.10;99.90;;;;;;5095134;28;20104;-67
2022/08/29 12:28:07;;;;;;;7.38;3.25;;;23.30;99.90;;;;;;5060332;28;20109;-67
2022/08/29 12:30:42;;;;;;;8.30;3.65;;;23.30;99.90;;;;;;5095112;28;20040;-67
2022/08/29 12:33:08;;;;;;;8.20;3.05;;;23.30;99.90;;;;;;5076894;28;20036;-67
2022/08/29 12:35:51;;;;;;;6.72;2.67;;;23.20;99.90;;;;;;5076698;28;20149;-67
2022/08/29 12:38:38;;;;;;;9.13;2.70;;;23.00;99.90;;;;;;5077112;28;20040;-67
2022/08/29 12:41:17;;;;;;;10.38;3.22;;;22.90;99.90;;;;;;5060539;28;20404;-66
2022/08/29 12:43:45;;;;;;;9.00;3.17;;;22.90;99.90;;;;;;5076666;28;20127;-67
2022/08/29 12:46:37;;;;;;;6.72;3.10;;;22.90;99.90;;;;;;5074131;28;20123;-67
2022/08/29 12:49:28;;;;;;;9.38;3.10;;;22.80;99.90;;;;;;5067765;28;20048;-67
2022/08/29 12:52:01;;;;;;;8.48;2.90;;;22.60;99.90;;;;;;5076541;28;20087;-67
2022/08/29 12:54:32;;;;;;;9.88;3.53;;;22.40;99.90;;;;;;5094707;28;20032;-66
2022/08/29 12:56:59;;;;;;;7.07;2.80;;;22.30;99.90;;;;;;5094978;28;20040;-69
2022/08/29 12:59:25;;;;;;;5.35;2.78;;;22.10;99.90;;;;;;5077259;28;20387;-67
2022/08/29 13:01:54;;;;;;;9.23;3.25;;;22.00;99.90;;;;;;5076851;28;20040;-67
2022/08/29 13:04:32;;;;;;;8.13;3.33;;;22.00;99.90;;;;;;5060019;28;20487;-66
2022/08/29 13:07:04;;;;;;;7.68;3.22;;;21.90;99.90;;;;;;5094517;28;20075;-66